sensor_id;sensor_type;location;lat;lon;timestamp;P1;durP1;ratioP1;P2;durP2;ratioP2
51296;SDS011;37380;45.186;9.792;2023-02-01T00:01:55;75.78;;;51.35;;
51296;SDS011;37380;45.186;9.792;2023-02-01T00:04:22;78.70;;;53.47;;
51296;SDS011;37380;45.186;9.792;2023-02-01T00:06:49;77.22;;;52.38;;
51296;SDS011;37380;45.186;9.792;2023-02-01T00:09:16;69.28;;;49.15;;
51296;SDS011;37380;45.186;9.792;2023-02-01T00:11:49;74.07;;;49.80;;
51296;SDS011;37380;45.186;9.792;2023-02-01T00:14:52;86.93;;;51.45;;
51296;SDS011;37380;45.186;9.792;2023-02-01T00:17:47;79.30;;;53.33;;
51296;SDS011;37380;45.186;9.792;2023-02-01T00:20:14;77.03;;;49.50;;
51296;SDS011;37380;45.186;9.792;2023-02-01T00:22:40;78.30;;;51.67;;
51296;SDS011;37380;45.186;9.792;2023-02-01T00:25:07;79.65;;;51.25;;
51296;SDS011;37380;45.186;9.792;2023-02-01T00:27:35;89.25;;;50.08;;
51296;SDS011;37380;45.186;9.792;2023-02-01T00:30:02;86.75;;;51.83;;
51296;SDS011;37380;45.186;9.792;2023-02-01T00:32:40;76.72;;;48.30;;
51296;SDS011;37380;45.186;9.792;2023-02-01T00:35:08;80.35;;;48.42;;
51296;SDS011;37380;45.186;9.792;2023-02-01T00:37:36;64.50;;;47.72;;
51296;SDS011;37380;45.186;9.792;2023-02-01T00:40:03;85.20;;;52.72;;
51296;SDS011;37380;45.186;9.792;2023-02-01T00:42:34;74.40;;;47.85;;
51296;SDS011;37380;45.186;9.792;2023-02-01T00:45:08;85.00;;;51.47;;
51296;SDS011;37380;45.186;9.792;2023-02-01T00:47:36;76.30;;;47.72;;
51296;SDS011;37380;45.186;9.792;2023-02-01T00:50:03;69.38;;;44.25;;
51296;SDS011;37380;45.186;9.792;2023-02-01T00:52:34;70.78;;;46.13;;
51296;SDS011;37380;45.186;9.792;2023-02-01T00:58:20;71.70;;;44.97;;
51296;SDS011;37380;45.186;9.792;2023-02-01T01:03:56;78.82;;;46.22;;
51296;SDS011;37380;45.186;9.792;2023-02-01T01:06:26;78.63;;;45.35;;
51296;SDS011;37380;45.186;9.792;2023-02-01T01:09:07;76.05;;;45.45;;
51296;SDS011;37380;45.186;9.792;2023-02-01T01:12:02;72.45;;;46.10;;
51296;SDS011;37380;45.186;9.792;2023-02-01T01:14:39;73.38;;;46.53;;
51296;SDS011;37380;45.186;9.792;2023-02-01T01:17:10;75.38;;;50.40;;
51296;SDS011;37380;45.186;9.792;2023-02-01T01:19:37;80.25;;;45.10;;
51296;SDS011;37380;45.186;9.792;2023-02-01T01:22:07;87.85;;;50.55;;
51296;SDS011;37380;45.186;9.792;2023-02-01T01:24:36;68.80;;;47.65;;
51296;SDS011;37380;45.186;9.792;2023-02-01T01:27:03;74.28;;;48.95;;
51296;SDS011;37380;45.186;9.792;2023-02-01T01:29:42;78.05;;;50.72;;
51296;SDS011;37380;45.186;9.792;2023-02-01T01:32:09;80.40;;;48.00;;
51296;SDS011;37380;45.186;9.792;2023-02-01T01:34:36;74.30;;;45.72;;
51296;SDS011;37380;45.186;9.792;2023-02-01T01:37:06;69.70;;;46.63;;
51296;SDS011;37380;45.186;9.792;2023-02-01T01:39:36;62.80;;;41.03;;
51296;SDS011;37380;45.186;9.792;2023-02-01T01:42:02;69.20;;;45.78;;
51296;SDS011;37380;45.186;9.792;2023-02-01T01:45:03;74.15;;;47.30;;
51296;SDS011;37380;45.186;9.792;2023-02-01T01:47:51;67.63;;;42.33;;
51296;SDS011;37380;45.186;9.792;2023-02-01T01:50:29;76.97;;;47.47;;
51296;SDS011;37380;45.186;9.792;2023-02-01T01:53:36;67.55;;;43.47;;
51296;SDS011;37380;45.186;9.792;2023-02-01T01:56:41;71.25;;;45.85;;
51296;SDS011;37380;45.186;9.792;2023-02-01T01:59:40;73.55;;;41.40;;
51296;SDS011;37380;45.186;9.792;2023-02-01T02:02:09;67.32;;;45.72;;
51296;SDS011;37380;45.186;9.792;2023-02-01T02:04:37;74.88;;;49.88;;
51296;SDS011;37380;45.186;9.792;2023-02-01T02:07:05;73.65;;;48.15;;
51296;SDS011;37380;45.186;9.792;2023-02-01T02:09:45;74.75;;;50.53;;
51296;SDS011;37380;45.186;9.792;2023-02-01T02:12:26;76.93;;;49.08;;
51296;SDS011;37380;45.186;9.792;2023-02-01T02:14:54;73.10;;;47.80;;
51296;SDS011;37380;45.186;9.792;2023-02-01T02:20:20;86.38;;;46.90;;
51296;SDS011;37380;45.186;9.792;2023-02-01T02:36:52;67.47;;;44.92;;
51296;SDS011;37380;45.186;9.792;2023-02-01T02:39:40;58.35;;;42.08;;
51296;SDS011;37380;45.186;9.792;2023-02-01T02:42:46;63.30;;;41.28;;
51296;SDS011;37380;45.186;9.792;2023-02-01T02:48:35;60.97;;;40.97;;
51296;SDS011;37380;45.186;9.792;2023-02-01T02:54:08;63.05;;;40.80;;
51296;SDS011;37380;45.186;9.792;2023-02-01T02:57:05;65.50;;;44.25;;
51296;SDS011;37380;45.186;9.792;2023-02-01T03:00:30;65.57;;;40.25;;
51296;SDS011;37380;45.186;9.792;2023-02-01T03:03:47;66.93;;;43.25;;
51296;SDS011;37380;45.186;9.792;2023-02-01T03:06:34;55.25;;;35.95;;
51296;SDS011;37380;45.186;9.792;2023-02-01T03:09:01;59.63;;;39.75;;
51296;SDS011;37380;45.186;9.792;2023-02-01T03:11:38;58.70;;;37.70;;
51296;SDS011;37380;45.186;9.792;2023-02-01T03:14:25;66.25;;;41.53;;
51296;SDS011;37380;45.186;9.792;2023-02-01T03:16:57;51.28;;;37.25;;
51296;SDS011;37380;45.186;9.792;2023-02-01T03:19:35;57.33;;;38.58;;
51296;SDS011;37380;45.186;9.792;2023-02-01T03:22:11;52.40;;;36.78;;
51296;SDS011;37380;45.186;9.792;2023-02-01T03:24:50;64.82;;;41.38;;
51296;SDS011;37380;45.186;9.792;2023-02-01T03:30:36;62.50;;;38.28;;
51296;SDS011;37380;45.186;9.792;2023-02-01T03:33:09;70.03;;;45.33;;
51296;SDS011;37380;45.186;9.792;2023-02-01T03:41:15;68.20;;;40.75;;
51296;SDS011;37380;45.186;9.792;2023-02-01T03:43:53;61.30;;;39.97;;
51296;SDS011;37380;45.186;9.792;2023-02-01T03:47:06;62.92;;;40.35;;
51296;SDS011;37380;45.186;9.792;2023-02-01T03:49:45;63.30;;;41.58;;
51296;SDS011;37380;45.186;9.792;2023-02-01T03:52:17;65.75;;;38.92;;
51296;SDS011;37380;45.186;9.792;2023-02-01T03:54:48;64.05;;;39.53;;
51296;SDS011;37380;45.186;9.792;2023-02-01T03:57:28;62.90;;;40.30;;
51296;SDS011;37380;45.186;9.792;2023-02-01T04:00:26;64.50;;;41.47;;
51296;SDS011;37380;45.186;9.792;2023-02-01T04:03:09;72.43;;;44.80;;
51296;SDS011;37380;45.186;9.792;2023-02-01T04:06:03;58.88;;;39.75;;
51296;SDS011;37380;45.186;9.792;2023-02-01T04:08:58;64.57;;;41.55;;
51296;SDS011;37380;45.186;9.792;2023-02-01T04:11:25;68.15;;;42.08;;
51296;SDS011;37380;45.186;9.792;2023-02-01T04:13:53;59.70;;;39.38;;
51296;SDS011;37380;45.186;9.792;2023-02-01T04:16:20;61.22;;;41.13;;
51296;SDS011;37380;45.186;9.792;2023-02-01T04:18:47;66.60;;;44.83;;
51296;SDS011;37380;45.186;9.792;2023-02-01T04:21:14;72.10;;;41.92;;
51296;SDS011;37380;45.186;9.792;2023-02-01T04:23:41;69.88;;;46.70;;
51296;SDS011;37380;45.186;9.792;2023-02-01T04:26:08;66.65;;;43.97;;
51296;SDS011;37380;45.186;9.792;2023-02-01T04:28:35;65.72;;;44.03;;
51296;SDS011;37380;45.186;9.792;2023-02-01T04:31:02;76.43;;;44.13;;
51296;SDS011;37380;45.186;9.792;2023-02-01T04:33:37;62.60;;;44.45;;
51296;SDS011;37380;45.186;9.792;2023-02-01T04:36:08;65.00;;;43.92;;
51296;SDS011;37380;45.186;9.792;2023-02-01T04:38:35;68.22;;;43.33;;
51296;SDS011;37380;45.186;9.792;2023-02-01T04:41:02;68.78;;;40.70;;
51296;SDS011;37380;45.186;9.792;2023-02-01T04:43:33;69.63;;;42.30;;
51296;SDS011;37380;45.186;9.792;2023-02-01T04:46:00;77.50;;;43.85;;
51296;SDS011;37380;45.186;9.792;2023-02-01T04:48:34;63.38;;;41.88;;
51296;SDS011;37380;45.186;9.792;2023-02-01T04:51:28;63.95;;;39.05;;
51296;SDS011;37380;45.186;9.792;2023-02-01T04:53:56;57.67;;;38.50;;
51296;SDS011;37380;45.186;9.792;2023-02-01T04:56:30;55.65;;;37.70;;
51296;SDS011;37380;45.186;9.792;2023-02-01T04:59:32;60.25;;;37.45;;
51296;SDS011;37380;45.186;9.792;2023-02-01T05:02:33;58.80;;;35.90;;
51296;SDS011;37380;45.186;9.792;2023-02-01T05:05:39;82.38;;;39.63;;
51296;SDS011;37380;45.186;9.792;2023-02-01T05:08:07;69.13;;;42.83;;
51296;SDS011;37380;45.186;9.792;2023-02-01T05:10:35;57.25;;;42.28;;
51296;SDS011;37380;45.186;9.792;2023-02-01T05:13:03;64.75;;;41.33;;
51296;SDS011;37380;45.186;9.792;2023-02-01T05:15:49;59.90;;;40.97;;
51296;SDS011;37380;45.186;9.792;2023-02-01T05:18:17;53.55;;;35.75;;
51296;SDS011;37380;45.186;9.792;2023-02-01T05:20:44;56.70;;;36.92;;
51296;SDS011;37380;45.186;9.792;2023-02-01T05:23:11;58.40;;;37.30;;
51296;SDS011;37380;45.186;9.792;2023-02-01T05:25:38;48.47;;;32.40;;
51296;SDS011;37380;45.186;9.792;2023-02-01T05:28:08;56.38;;;36.60;;
51296;SDS011;37380;45.186;9.792;2023-02-01T05:30:35;51.80;;;34.83;;
51296;SDS011;37380;45.186;9.792;2023-02-01T05:33:02;45.97;;;34.60;;
51296;SDS011;37380;45.186;9.792;2023-02-01T05:35:42;51.58;;;35.53;;
51296;SDS011;37380;45.186;9.792;2023-02-01T05:38:46;64.10;;;38.67;;
51296;SDS011;37380;45.186;9.792;2023-02-01T05:41:40;55.55;;;35.10;;
51296;SDS011;37380;45.186;9.792;2023-02-01T05:44:07;56.05;;;36.05;;
51296;SDS011;37380;45.186;9.792;2023-02-01T05:46:35;49.53;;;34.33;;
51296;SDS011;37380;45.186;9.792;2023-02-01T05:49:02;57.92;;;39.25;;
51296;SDS011;37380;45.186;9.792;2023-02-01T05:51:37;64.82;;;37.78;;
51296;SDS011;37380;45.186;9.792;2023-02-01T05:54:04;68.10;;;38.28;;
51296;SDS011;37380;45.186;9.792;2023-02-01T05:56:41;74.60;;;40.00;;
51296;SDS011;37380;45.186;9.792;2023-02-01T05:59:35;73.90;;;39.55;;
51296;SDS011;37380;45.186;9.792;2023-02-01T06:02:07;59.17;;;36.78;;
51296;SDS011;37380;45.186;9.792;2023-02-01T06:04:36;59.72;;;37.38;;
51296;SDS011;37380;45.186;9.792;2023-02-01T06:07:03;60.50;;;37.67;;
51296;SDS011;37380;45.186;9.792;2023-02-01T06:09:35;63.47;;;35.83;;
51296;SDS011;37380;45.186;9.792;2023-02-01T06:12:09;61.28;;;38.92;;
51296;SDS011;37380;45.186;9.792;2023-02-01T06:15:10;53.90;;;35.90;;
51296;SDS011;37380;45.186;9.792;2023-02-01T06:17:43;52.35;;;35.67;;
51296;SDS011;37380;45.186;9.792;2023-02-01T06:20:12;64.30;;;39.05;;
51296;SDS011;37380;45.186;9.792;2023-02-01T06:22:47;56.10;;;34.58;;
51296;SDS011;37380;45.186;9.792;2023-02-01T06:25:41;51.45;;;36.17;;
51296;SDS011;37380;45.186;9.792;2023-02-01T06:28:13;81.93;;;41.85;;
51296;SDS011;37380;45.186;9.792;2023-02-01T06:30:40;64.47;;;38.05;;
51296;SDS011;37380;45.186;9.792;2023-02-01T06:33:13;59.47;;;36.33;;
51296;SDS011;37380;45.186;9.792;2023-02-01T06:35:42;63.60;;;39.85;;
51296;SDS011;37380;45.186;9.792;2023-02-01T06:38:11;62.95;;;39.55;;
51296;SDS011;37380;45.186;9.792;2023-02-01T06:41:13;57.65;;;37.58;;
51296;SDS011;37380;45.186;9.792;2023-02-01T06:44:15;55.28;;;37.75;;
51296;SDS011;37380;45.186;9.792;2023-02-01T06:47:07;51.97;;;36.75;;
51296;SDS011;37380;45.186;9.792;2023-02-01T06:49:50;77.18;;;37.70;;
51296;SDS011;37380;45.186;9.792;2023-02-01T06:53:09;62.75;;;38.17;;
51296;SDS011;37380;45.186;9.792;2023-02-01T06:56:12;71.55;;;39.75;;
51296;SDS011;37380;45.186;9.792;2023-02-01T06:59:13;140.88;;;51.50;;
51296;SDS011;37380;45.186;9.792;2023-02-01T07:02:14;77.95;;;43.63;;
51296;SDS011;37380;45.186;9.792;2023-02-01T07:05:12;64.00;;;40.38;;
51296;SDS011;37380;45.186;9.792;2023-02-01T07:07:56;55.83;;;39.08;;
51296;SDS011;37380;45.186;9.792;2023-02-01T07:11:17;51.63;;;35.70;;
51296;SDS011;37380;45.186;9.792;2023-02-01T07:14:15;42.47;;;31.85;;
51296;SDS011;37380;45.186;9.792;2023-02-01T07:16:43;53.10;;;36.75;;
51296;SDS011;37380;45.186;9.792;2023-02-01T07:19:14;53.45;;;36.55;;
51296;SDS011;37380;45.186;9.792;2023-02-01T07:21:44;47.97;;;35.92;;
51296;SDS011;37380;45.186;9.792;2023-02-01T07:24:11;57.47;;;40.65;;
51296;SDS011;37380;45.186;9.792;2023-02-01T07:26:41;64.50;;;36.05;;
51296;SDS011;37380;45.186;9.792;2023-02-01T07:29:08;54.40;;;36.75;;
51296;SDS011;37380;45.186;9.792;2023-02-01T07:32:12;64.15;;;39.58;;
51296;SDS011;37380;45.186;9.792;2023-02-01T07:36:02;57.78;;;42.22;;
51296;SDS011;37380;45.186;9.792;2023-02-01T07:43:00;62.13;;;41.05;;
51296;SDS011;37380;45.186;9.792;2023-02-01T07:45:49;59.58;;;38.08;;
51296;SDS011;37380;45.186;9.792;2023-02-01T07:52:44;56.45;;;37.83;;
51296;SDS011;37380;45.186;9.792;2023-02-01T08:00:20;55.35;;;34.67;;
51296;SDS011;37380;45.186;9.792;2023-02-01T08:03:23;61.42;;;37.28;;
51296;SDS011;37380;45.186;9.792;2023-02-01T08:09:01;55.83;;;32.25;;
51296;SDS011;37380;45.186;9.792;2023-02-01T08:11:54;53.70;;;36.50;;
51296;SDS011;37380;45.186;9.792;2023-02-01T08:14:42;53.17;;;35.42;;
51296;SDS011;37380;45.186;9.792;2023-02-01T08:17:51;49.45;;;31.85;;
51296;SDS011;37380;45.186;9.792;2023-02-01T08:20:45;55.85;;;34.33;;
51296;SDS011;37380;45.186;9.792;2023-02-01T08:23:12;43.10;;;31.13;;
51296;SDS011;37380;45.186;9.792;2023-02-01T08:25:40;53.10;;;32.35;;
51296;SDS011;37380;45.186;9.792;2023-02-01T08:28:08;40.97;;;28.92;;
51296;SDS011;37380;45.186;9.792;2023-02-01T08:30:48;41.58;;;30.38;;
51296;SDS011;37380;45.186;9.792;2023-02-01T08:33:42;55.72;;;36.75;;
51296;SDS011;37380;45.186;9.792;2023-02-01T08:36:10;51.22;;;32.33;;
51296;SDS011;37380;45.186;9.792;2023-02-01T08:38:44;50.42;;;34.55;;
51296;SDS011;37380;45.186;9.792;2023-02-01T08:41:39;43.13;;;29.90;;
51296;SDS011;37380;45.186;9.792;2023-02-01T08:44:08;53.35;;;36.90;;
51296;SDS011;37380;45.186;9.792;2023-02-01T08:46:37;54.45;;;36.45;;
51296;SDS011;37380;45.186;9.792;2023-02-01T08:49:07;47.45;;;34.03;;
51296;SDS011;37380;45.186;9.792;2023-02-01T08:51:44;44.70;;;32.75;;
51296;SDS011;37380;45.186;9.792;2023-02-01T08:54:53;58.85;;;34.60;;
51296;SDS011;37380;45.186;9.792;2023-02-01T08:57:54;65.55;;;35.20;;
51296;SDS011;37380;45.186;9.792;2023-02-01T09:00:48;45.83;;;31.08;;
51296;SDS011;37380;45.186;9.792;2023-02-01T09:03:16;47.95;;;33.58;;
51296;SDS011;37380;45.186;9.792;2023-02-01T09:05:43;50.58;;;31.50;;
51296;SDS011;37380;45.186;9.792;2023-02-01T09:08:22;44.35;;;31.73;;
51296;SDS011;37380;45.186;9.792;2023-02-01T09:11:14;50.15;;;31.45;;
51296;SDS011;37380;45.186;9.792;2023-02-01T09:13:42;47.38;;;31.38;;
51296;SDS011;37380;45.186;9.792;2023-02-01T09:16:10;55.47;;;33.05;;
51296;SDS011;37380;45.186;9.792;2023-02-01T09:18:37;50.08;;;31.10;;
51296;SDS011;37380;45.186;9.792;2023-02-01T09:21:24;59.05;;;36.20;;
51296;SDS011;37380;45.186;9.792;2023-02-01T09:23:51;41.80;;;30.00;;
51296;SDS011;37380;45.186;9.792;2023-02-01T09:26:18;43.33;;;29.30;;
51296;SDS011;37380;45.186;9.792;2023-02-01T09:28:57;58.13;;;34.20;;
51296;SDS011;37380;45.186;9.792;2023-02-01T09:31:39;48.05;;;33.17;;
51296;SDS011;37380;45.186;9.792;2023-02-01T09:34:49;56.85;;;33.90;;
51296;SDS011;37380;45.186;9.792;2023-02-01T09:38:11;51.65;;;36.28;;
51296;SDS011;37380;45.186;9.792;2023-02-01T09:40:47;53.30;;;33.08;;
51296;SDS011;37380;45.186;9.792;2023-02-01T09:46:37;50.17;;;36.65;;
51296;SDS011;37380;45.186;9.792;2023-02-01T09:49:12;56.92;;;36.42;;
51296;SDS011;37380;45.186;9.792;2023-02-01T09:51:45;49.63;;;34.58;;
51296;SDS011;37380;45.186;9.792;2023-02-01T09:54:16;54.70;;;38.15;;
51296;SDS011;37380;45.186;9.792;2023-02-01T10:01:03;49.28;;;35.38;;
51296;SDS011;37380;45.186;9.792;2023-02-01T10:04:15;56.95;;;35.63;;
51296;SDS011;37380;45.186;9.792;2023-02-01T10:15:49;51.08;;;36.92;;
51296;SDS011;37380;45.186;9.792;2023-02-01T10:21:16;50.58;;;36.92;;
51296;SDS011;37380;45.186;9.792;2023-02-01T10:24:53;49.65;;;35.17;;
51296;SDS011;37380;45.186;9.792;2023-02-01T10:28:11;57.42;;;32.83;;
51296;SDS011;37380;45.186;9.792;2023-02-01T10:30:56;52.38;;;38.08;;
51296;SDS011;37380;45.186;9.792;2023-02-01T10:34:28;50.38;;;34.88;;
51296;SDS011;37380;45.186;9.792;2023-02-01T10:40:24;60.17;;;38.17;;
51296;SDS011;37380;45.186;9.792;2023-02-01T10:42:53;70.82;;;39.17;;
51296;SDS011;37380;45.186;9.792;2023-02-01T10:45:28;55.63;;;36.25;;
51296;SDS011;37380;45.186;9.792;2023-02-01T10:47:57;56.50;;;38.90;;
51296;SDS011;37380;45.186;9.792;2023-02-01T10:50:42;52.50;;;37.97;;
51296;SDS011;37380;45.186;9.792;2023-02-01T10:53:33;49.00;;;35.38;;
51296;SDS011;37380;45.186;9.792;2023-02-01T10:57:24;59.60;;;35.58;;
51296;SDS011;37380;45.186;9.792;2023-02-01T11:00:20;50.90;;;36.08;;
51296;SDS011;37380;45.186;9.792;2023-02-01T11:02:49;48.53;;;32.58;;
51296;SDS011;37380;45.186;9.792;2023-02-01T11:05:24;64.45;;;33.55;;
51296;SDS011;37380;45.186;9.792;2023-02-01T11:08:25;43.70;;;33.30;;
51296;SDS011;37380;45.186;9.792;2023-02-01T11:11:26;54.28;;;34.90;;
51296;SDS011;37380;45.186;9.792;2023-02-01T11:14:32;49.80;;;34.83;;
51296;SDS011;37380;45.186;9.792;2023-02-01T11:17:17;46.35;;;35.15;;
51296;SDS011;37380;45.186;9.792;2023-02-01T11:20:14;45.83;;;33.65;;
51296;SDS011;37380;45.186;9.792;2023-02-01T11:22:49;60.30;;;34.53;;
51296;SDS011;37380;45.186;9.792;2023-02-01T11:25:32;50.78;;;36.13;;
51296;SDS011;37380;45.186;9.792;2023-02-01T11:28:40;63.10;;;34.90;;
51296;SDS011;37380;45.186;9.792;2023-02-01T11:31:21;56.05;;;36.85;;
51296;SDS011;37380;45.186;9.792;2023-02-01T11:33:54;43.55;;;31.67;;
51296;SDS011;37380;45.186;9.792;2023-02-01T11:36:26;50.70;;;32.28;;
51296;SDS011;37380;45.186;9.792;2023-02-01T11:41:43;41.40;;;29.92;;
51296;SDS011;37380;45.186;9.792;2023-02-01T11:44:42;48.85;;;31.90;;
51296;SDS011;37380;45.186;9.792;2023-02-01T11:47:30;44.60;;;32.55;;
51296;SDS011;37380;45.186;9.792;2023-02-01T11:50:14;44.25;;;31.42;;
51296;SDS011;37380;45.186;9.792;2023-02-01T12:29:27;40.35;;;27.40;;
51296;SDS011;37380;45.186;9.792;2023-02-01T12:35:05;40.28;;;26.95;;
51296;SDS011;37380;45.186;9.792;2023-02-01T12:50:57;41.78;;;26.88;;
51296;SDS011;37380;45.186;9.792;2023-02-01T12:53:53;39.60;;;29.83;;
51296;SDS011;37380;45.186;9.792;2023-02-01T12:57:20;49.10;;;28.75;;
51296;SDS011;37380;45.186;9.792;2023-02-01T13:01:12;42.55;;;29.17;;
51296;SDS011;37380;45.186;9.792;2023-02-01T13:08:24;46.88;;;28.35;;
51296;SDS011;37380;45.186;9.792;2023-02-01T13:11:39;38.97;;;27.58;;
51296;SDS011;37380;45.186;9.792;2023-02-01T13:26:08;38.30;;;24.92;;
51296;SDS011;37380;45.186;9.792;2023-02-01T13:28:52;44.22;;;29.40;;
51296;SDS011;37380;45.186;9.792;2023-02-01T13:43:14;42.33;;;30.27;;
51296;SDS011;37380;45.186;9.792;2023-02-01T13:45:56;51.22;;;27.70;;
51296;SDS011;37380;45.186;9.792;2023-02-01T13:49:28;40.90;;;29.13;;
51296;SDS011;37380;45.186;9.792;2023-02-01T13:53:16;54.35;;;29.05;;
51296;SDS011;37380;45.186;9.792;2023-02-01T13:56:19;45.45;;;29.02;;
51296;SDS011;37380;45.186;9.792;2023-02-01T13:59:46;45.08;;;29.15;;
51296;SDS011;37380;45.186;9.792;2023-02-01T14:03:11;37.50;;;27.98;;
51296;SDS011;37380;45.186;9.792;2023-02-01T14:19:42;41.78;;;26.75;;
51296;SDS011;37380;45.186;9.792;2023-02-01T14:22:37;37.53;;;27.02;;
51296;SDS011;37380;45.186;9.792;2023-02-01T14:25:14;29.95;;;23.85;;
51296;SDS011;37380;45.186;9.792;2023-02-01T14:27:50;61.15;;;25.08;;
51296;SDS011;37380;45.186;9.792;2023-02-01T14:30:56;37.92;;;24.88;;
51296;SDS011;37380;45.186;9.792;2023-02-01T14:34:21;40.42;;;25.30;;
51296;SDS011;37380;45.186;9.792;2023-02-01T14:37:01;37.95;;;23.85;;
51296;SDS011;37380;45.186;9.792;2023-02-01T14:51:28;46.13;;;22.52;;
51296;SDS011;37380;45.186;9.792;2023-02-01T14:54:18;37.20;;;25.25;;
51296;SDS011;37380;45.186;9.792;2023-02-01T14:56:54;38.25;;;24.27;;
51296;SDS011;37380;45.186;9.792;2023-02-01T14:59:53;37.33;;;24.00;;
51296;SDS011;37380;45.186;9.792;2023-02-01T15:02:41;29.08;;;22.75;;
51296;SDS011;37380;45.186;9.792;2023-02-01T15:05:22;39.83;;;25.90;;
51296;SDS011;37380;45.186;9.792;2023-02-01T15:07:58;43.85;;;26.92;;
51296;SDS011;37380;45.186;9.792;2023-02-01T15:10:32;42.35;;;23.17;;
51296;SDS011;37380;45.186;9.792;2023-02-01T15:13:20;41.83;;;23.77;;
51296;SDS011;37380;45.186;9.792;2023-02-01T15:18:30;38.83;;;22.58;;
51296;SDS011;37380;45.186;9.792;2023-02-01T15:20:58;48.65;;;24.45;;
51296;SDS011;37380;45.186;9.792;2023-02-01T15:23:46;42.03;;;22.83;;
51296;SDS011;37380;45.186;9.792;2023-02-01T15:26:30;37.28;;;23.20;;
51296;SDS011;37380;45.186;9.792;2023-02-01T15:29:32;33.83;;;22.83;;
51296;SDS011;37380;45.186;9.792;2023-02-01T15:32:34;36.40;;;25.10;;
51296;SDS011;37380;45.186;9.792;2023-02-01T15:35:41;43.67;;;27.52;;
51296;SDS011;37380;45.186;9.792;2023-02-01T15:38:44;56.30;;;30.25;;
51296;SDS011;37380;45.186;9.792;2023-02-01T15:41:38;56.67;;;31.27;;
51296;SDS011;37380;45.186;9.792;2023-02-01T15:44:51;52.28;;;27.13;;
51296;SDS011;37380;45.186;9.792;2023-02-01T15:47:15;55.50;;;29.90;;
51296;SDS011;37380;45.186;9.792;2023-02-01T15:50:12;52.13;;;29.50;;
51296;SDS011;37380;45.186;9.792;2023-02-01T15:52:47;61.17;;;33.38;;
51296;SDS011;37380;45.186;9.792;2023-02-01T15:55:54;49.53;;;28.52;;
51296;SDS011;37380;45.186;9.792;2023-02-01T15:58:55;46.45;;;31.63;;
51296;SDS011;37380;45.186;9.792;2023-02-01T16:01:54;42.15;;;29.77;;
51296;SDS011;37380;45.186;9.792;2023-02-01T16:04:28;46.10;;;31.00;;
51296;SDS011;37380;45.186;9.792;2023-02-01T16:07:31;75.22;;;31.90;;
51296;SDS011;37380;45.186;9.792;2023-02-01T16:10:25;59.13;;;32.47;;
51296;SDS011;37380;45.186;9.792;2023-02-01T16:12:53;52.13;;;30.48;;
51296;SDS011;37380;45.186;9.792;2023-02-01T16:15:26;54.85;;;32.22;;
51296;SDS011;37380;45.186;9.792;2023-02-01T16:17:56;45.22;;;30.05;;
51296;SDS011;37380;45.186;9.792;2023-02-01T16:20:23;49.83;;;31.40;;
51296;SDS011;37380;45.186;9.792;2023-02-01T16:22:50;60.70;;;30.27;;
51296;SDS011;37380;45.186;9.792;2023-02-01T16:25:23;51.83;;;30.30;;
51296;SDS011;37380;45.186;9.792;2023-02-01T16:28:24;60.85;;;32.40;;
51296;SDS011;37380;45.186;9.792;2023-02-01T16:31:19;48.92;;;32.83;;
51296;SDS011;37380;45.186;9.792;2023-02-01T16:33:51;51.83;;;30.85;;
51296;SDS011;37380;45.186;9.792;2023-02-01T16:36:18;55.90;;;27.63;;
51296;SDS011;37380;45.186;9.792;2023-02-01T16:38:52;57.15;;;31.25;;
51296;SDS011;37380;45.186;9.792;2023-02-01T16:41:53;35.08;;;30.83;;
51296;SDS011;37380;45.186;9.792;2023-02-01T16:44:47;54.92;;;33.30;;
51296;SDS011;37380;45.186;9.792;2023-02-01T16:47:17;47.25;;;31.83;;
51296;SDS011;37380;45.186;9.792;2023-02-01T16:49:52;46.67;;;30.67;;
51296;SDS011;37380;45.186;9.792;2023-02-01T16:52:24;50.05;;;31.88;;
51296;SDS011;37380;45.186;9.792;2023-02-01T16:54:53;41.20;;;31.75;;
51296;SDS011;37380;45.186;9.792;2023-02-01T16:57:26;56.40;;;31.52;;
51296;SDS011;37380;45.186;9.792;2023-02-01T17:00:27;54.72;;;31.73;;
51296;SDS011;37380;45.186;9.792;2023-02-01T17:03:30;48.13;;;30.60;;
51296;SDS011;37380;45.186;9.792;2023-02-01T17:06:25;43.63;;;29.55;;
51296;SDS011;37380;45.186;9.792;2023-02-01T17:08:54;46.13;;;33.28;;
51296;SDS011;37380;45.186;9.792;2023-02-01T17:11:24;41.13;;;33.00;;
51296;SDS011;37380;45.186;9.792;2023-02-01T17:13:52;54.63;;;33.35;;
51296;SDS011;37380;45.186;9.792;2023-02-01T17:16:30;60.05;;;33.35;;
51296;SDS011;37380;45.186;9.792;2023-02-01T17:19:14;55.53;;;34.13;;
51296;SDS011;37380;45.186;9.792;2023-02-01T17:22:04;48.30;;;32.70;;
51296;SDS011;37380;45.186;9.792;2023-02-01T17:25:13;47.97;;;31.15;;
51296;SDS011;37380;45.186;9.792;2023-02-01T17:28:19;56.92;;;34.20;;
51296;SDS011;37380;45.186;9.792;2023-02-01T17:31:20;50.22;;;34.20;;
51296;SDS011;37380;45.186;9.792;2023-02-01T17:33:55;88.25;;;37.50;;
51296;SDS011;37380;45.186;9.792;2023-02-01T17:36:22;59.35;;;37.60;;
51296;SDS011;37380;45.186;9.792;2023-02-01T17:38:56;73.20;;;38.58;;
51296;SDS011;37380;45.186;9.792;2023-02-01T17:41:58;50.63;;;32.28;;
51296;SDS011;37380;45.186;9.792;2023-02-01T17:45:00;44.55;;;30.92;;
51296;SDS011;37380;45.186;9.792;2023-02-01T17:47:45;62.60;;;30.50;;
51296;SDS011;37380;45.186;9.792;2023-02-01T17:50:13;44.22;;;30.13;;
51296;SDS011;37380;45.186;9.792;2023-02-01T17:52:47;43.30;;;28.88;;
51296;SDS011;37380;45.186;9.792;2023-02-01T17:55:51;44.10;;;25.08;;
51296;SDS011;37380;45.186;9.792;2023-02-01T17:58:46;36.30;;;24.33;;
51296;SDS011;37380;45.186;9.792;2023-02-01T18:01:14;38.03;;;24.98;;
51296;SDS011;37380;45.186;9.792;2023-02-01T18:03:51;29.85;;;19.75;;
51296;SDS011;37380;45.186;9.792;2023-02-01T18:06:25;36.10;;;20.65;;
51296;SDS011;37380;45.186;9.792;2023-02-01T18:09:26;35.35;;;19.95;;
51296;SDS011;37380;45.186;9.792;2023-02-01T18:12:27;24.33;;;13.77;;
51296;SDS011;37380;45.186;9.792;2023-02-01T18:15:29;19.65;;;12.73;;
51296;SDS011;37380;45.186;9.792;2023-02-01T18:18:12;19.52;;;10.98;;
51296;SDS011;37380;45.186;9.792;2023-02-01T18:20:46;19.58;;;10.27;;
51296;SDS011;37380;45.186;9.792;2023-02-01T18:23:42;23.73;;;13.48;;
51296;SDS011;37380;45.186;9.792;2023-02-01T18:26:16;35.72;;;16.48;;
51296;SDS011;37380;45.186;9.792;2023-02-01T18:29:12;17.48;;;10.98;;
51296;SDS011;37380;45.186;9.792;2023-02-01T18:31:44;22.05;;;10.60;;
51296;SDS011;37380;45.186;9.792;2023-02-01T18:34:16;16.08;;;7.30;;
51296;SDS011;37380;45.186;9.792;2023-02-01T18:36:51;24.52;;;8.30;;
51296;SDS011;37380;45.186;9.792;2023-02-01T18:39:25;20.27;;;10.15;;
51296;SDS011;37380;45.186;9.792;2023-02-01T18:41:52;13.93;;;7.68;;
51296;SDS011;37380;45.186;9.792;2023-02-01T18:44:19;22.10;;;7.72;;
51296;SDS011;37380;45.186;9.792;2023-02-01T18:46:46;25.75;;;6.75;;
51296;SDS011;37380;45.186;9.792;2023-02-01T18:49:15;19.75;;;7.10;;
51296;SDS011;37380;45.186;9.792;2023-02-01T18:51:44;17.25;;;7.68;;
51296;SDS011;37380;45.186;9.792;2023-02-01T18:54:13;12.82;;;5.90;;
51296;SDS011;37380;45.186;9.792;2023-02-01T18:56:46;13.98;;;5.50;;
51296;SDS011;37380;45.186;9.792;2023-02-01T18:59:47;16.92;;;5.40;;
51296;SDS011;37380;45.186;9.792;2023-02-01T19:02:41;18.70;;;6.97;;